createdAt,value
2017-10-30T00:00:47.095Z,99.10
2017-10-30T00:03:15.416Z,99.00
2017-10-30T00:05:43.176Z,99.00
2017-10-30T00:08:10.759Z,99.00
2017-10-30T00:10:38.547Z,99.00
2017-10-30T00:13:06.124Z,99.00
2017-10-30T00:15:33.680Z,99.10
2017-10-30T00:18:01.258Z,99.10
2017-10-30T00:20:28.933Z,99.00
2017-10-30T00:22:56.862Z,99.10
2017-10-30T00:25:24.482Z,99.00
2017-10-30T00:27:52.292Z,99.00
2017-10-30T00:30:19.995Z,99.00
2017-10-30T00:32:47.601Z,98.90
2017-10-30T00:35:15.305Z,98.90
2017-10-30T00:37:42.869Z,98.70
2017-10-30T00:40:10.456Z,98.90
2017-10-30T00:42:38.197Z,98.90
2017-10-30T00:45:05.723Z,99.10
2017-10-30T00:47:34.019Z,99.30
2017-10-30T00:50:04.963Z,99.30
2017-10-30T00:52:32.906Z,99.50
2017-10-30T00:55:01.353Z,99.70
2017-10-30T00:57:29.178Z,99.70
2017-10-30T00:59:56.813Z,99.50
2017-10-30T01:02:25.220Z,99.40
2017-10-30T01:04:52.763Z,99.40
2017-10-30T01:07:20.324Z,99.30
2017-10-30T01:09:47.890Z,99.20
2017-10-30T01:12:15.497Z,99.20
2017-10-30T01:14:43.181Z,99.10
2017-10-30T01:17:11.517Z,99.10
2017-10-30T01:19:39.252Z,99.10
2017-10-30T01:22:07.526Z,99.10
2017-10-30T01:24:35.596Z,99.00
2017-10-30T01:27:03.260Z,98.90
2017-10-30T01:29:31.001Z,99.00
2017-10-30T01:31:58.621Z,99.00
2017-10-30T01:34:26.357Z,99.10
2017-10-30T01:36:54.666Z,99.00
2017-10-30T01:39:22.272Z,99.00
2017-10-30T01:41:49.871Z,98.90
2017-10-30T01:44:17.562Z,99.10
2017-10-30T01:46:45.887Z,99.00
2017-10-30T01:49:13.742Z,98.90
2017-10-30T01:51:42.140Z,98.80
2017-10-30T01:54:09.901Z,98.80
2017-10-30T01:56:37.654Z,98.80
2017-10-30T01:59:05.529Z,98.60
2017-10-30T02:01:34.002Z,98.60
2017-10-30T02:04:01.774Z,98.60
2017-10-30T02:06:29.362Z,98.70
2017-10-30T02:08:58.095Z,98.70
2017-10-30T02:11:25.987Z,98.70
2017-10-30T02:13:53.778Z,98.60
2017-10-30T02:16:21.382Z,98.60
2017-10-30T02:18:49.047Z,98.80
2017-10-30T02:21:16.813Z,98.90
2017-10-30T02:23:44.751Z,98.90
2017-10-30T02:26:12.584Z,99.10
2017-10-30T02:28:40.210Z,99.20
2017-10-30T02:31:07.896Z,99.20
2017-10-30T02:33:35.580Z,99.40
2017-10-30T02:36:04.203Z,99.30
2017-10-30T02:38:32.060Z,99.30
2017-10-30T02:40:59.756Z,99.40
2017-10-30T02:43:27.361Z,99.50
2017-10-30T02:45:55.690Z,99.40
2017-10-30T02:48:23.485Z,99.40
2017-10-30T02:50:52.276Z,99.30
2017-10-30T02:53:20.677Z,99.50
2017-10-30T02:55:48.430Z,99.40
2017-10-30T02:58:16.820Z,99.50
2017-10-30T03:00:44.403Z,99.40
2017-10-30T03:03:12.083Z,99.30
2017-10-30T03:05:39.636Z,99.30
2017-10-30T03:08:07.203Z,99.20
2017-10-30T03:10:34.781Z,99.20
2017-10-30T03:13:03.080Z,99.20
2017-10-30T03:15:30.597Z,99.20
2017-10-30T03:17:58.171Z,99.30
2017-10-30T03:20:25.711Z,99.20
2017-10-30T03:22:53.245Z,99.20
2017-10-30T03:25:20.813Z,99.40
2017-10-30T03:27:48.451Z,99.20
2017-10-30T03:30:15.988Z,99.30
2017-10-30T03:32:44.470Z,99.40
2017-10-30T03:35:12.759Z,99.30
2017-10-30T03:37:40.328Z,99.30
2017-10-30T03:40:07.886Z,99.50
2017-10-30T03:42:35.440Z,99.40
2017-10-30T03:45:02.996Z,99.20
2017-10-30T03:47:30.543Z,99.30
2017-10-30T03:49:58.078Z,99.40
2017-10-30T03:52:26.491Z,99.50
2017-10-30T03:54:54.026Z,99.50
2017-10-30T03:57:21.606Z,99.70
2017-10-30T03:59:49.129Z,99.50
2017-10-30T04:02:17.472Z,99.40
2017-10-30T04:04:45.012Z,99.40
2017-10-30T04:07:13.309Z,99.40
2017-10-30T04:09:40.866Z,99.30
2017-10-30T04:12:08.410Z,99.20
2017-10-30T04:14:35.981Z,99.20
2017-10-30T04:17:03.525Z,99.20
2017-10-30T04:19:31.097Z,99.20
2017-10-30T04:21:58.656Z,99.20
2017-10-30T04:24:26.358Z,99.20
2017-10-30T04:26:54.668Z,99.00
2017-10-30T04:29:22.245Z,99.00
2017-10-30T04:31:49.806Z,98.90
2017-10-30T04:34:17.382Z,98.70
2017-10-30T04:36:44.910Z,98.80
2017-10-30T04:39:12.635Z,98.90
2017-10-30T04:41:40.171Z,98.70
2017-10-30T04:44:08.504Z,98.80
2017-10-30T04:46:36.076Z,98.80
2017-10-30T04:49:03.638Z,98.70
2017-10-30T04:51:31.198Z,98.70
2017-10-30T04:53:58.745Z,98.80
2017-10-30T04:56:26.280Z,98.80
2017-10-30T04:58:53.805Z,98.80
2017-10-30T05:01:22.214Z,98.90
2017-10-30T05:03:49.742Z,98.90
2017-10-30T05:06:18.765Z,98.90
2017-10-30T05:08:46.417Z,98.80
2017-10-30T05:11:13.977Z,98.90
2017-10-30T05:13:41.632Z,98.80
2017-10-30T05:16:09.199Z,98.80
2017-10-30T05:18:36.744Z,98.80
2017-10-30T05:21:04.317Z,98.80
2017-10-30T05:23:31.880Z,98.90
2017-10-30T05:25:59.414Z,98.80
2017-10-30T05:28:29.185Z,99.00
2017-10-30T05:30:56.754Z,98.90
2017-10-30T05:33:24.295Z,98.90
2017-10-30T05:35:51.832Z,99.20
2017-10-30T05:38:19.430Z,99.20
2017-10-30T05:40:46.982Z,99.50
2017-10-30T05:43:14.510Z,99.40
2017-10-30T05:45:42.097Z,99.60
2017-10-30T05:48:09.936Z,99.60
2017-10-30T05:50:37.471Z,99.50
2017-10-30T05:53:05.239Z,99.70
2017-10-30T05:55:32.799Z,99.70
2017-10-30T05:58:00.357Z,99.70
2017-10-30T06:00:28.327Z,99.70
2017-10-30T06:02:55.852Z,99.80
2017-10-30T06:05:24.177Z,99.90
2017-10-30T06:07:51.894Z,99.90
2017-10-30T06:10:20.199Z,99.90
2017-10-30T06:12:47.722Z,99.90
2017-10-30T06:15:17.197Z,99.90
2017-10-30T06:17:45.315Z,99.90
2017-10-30T06:20:12.869Z,99.90
2017-10-30T06:22:40.449Z,99.90
2017-10-30T06:25:07.983Z,99.90
2017-10-30T06:27:35.552Z,99.80
2017-10-30T06:30:03.086Z,99.70
2017-10-30T06:32:31.488Z,99.70
2017-10-30T06:34:59.257Z,99.70
2017-10-30T06:37:26.809Z,99.70
2017-10-30T06:39:54.365Z,99.50
2017-10-30T06:42:21.933Z,99.50
2017-10-30T06:44:49.453Z,99.40
2017-10-30T06:47:17.733Z,99.40
2017-10-30T06:49:45.293Z,99.30
2017-10-30T06:52:13.636Z,99.40
2017-10-30T06:54:41.241Z,99.40
2017-10-30T06:57:09.025Z,99.50
2017-10-30T06:59:36.561Z,99.50
2017-10-30T07:02:04.113Z,99.50
2017-10-30T07:04:32.618Z,99.70
2017-10-30T07:07:00.179Z,99.60
2017-10-30T07:09:27.718Z,99.70
2017-10-30T07:11:55.284Z,99.60
2017-10-30T07:14:22.876Z,99.60
2017-10-30T07:16:50.453Z,99.50
2017-10-30T07:19:18.025Z,99.40
2017-10-30T07:21:46.443Z,99.30
2017-10-30T07:24:13.970Z,99.30
2017-10-30T07:26:42.325Z,99.10
2017-10-30T07:29:09.856Z,99.10
2017-10-30T07:31:37.402Z,99.20
2017-10-30T07:34:05.087Z,99.00
2017-10-30T07:36:32.630Z,99.00
2017-10-30T07:39:00.276Z,98.90
2017-10-30T07:41:28.049Z,98.80
2017-10-30T07:43:55.589Z,98.70
2017-10-30T07:46:23.238Z,98.90
2017-10-30T07:48:50.989Z,98.40
2017-10-30T07:51:18.571Z,98.40
2017-10-30T07:53:46.323Z,98.30
2017-10-30T07:56:13.860Z,98.10
2017-10-30T07:58:42.197Z,97.70
2017-10-30T08:01:09.745Z,97.60
2017-10-30T08:03:37.289Z,97.70
2017-10-30T08:06:04.853Z,97.70
2017-10-30T08:08:32.426Z,97.60
2017-10-30T08:11:00.072Z,97.30
2017-10-30T08:13:27.639Z,97.10
2017-10-30T08:15:55.508Z,97.20
2017-10-30T08:18:23.249Z,97.30
2017-10-30T08:20:50.798Z,96.90
2017-10-30T08:23:18.333Z,96.70
2017-10-30T08:25:46.726Z,96.00
2017-10-30T08:28:14.300Z,96.00
2017-10-30T08:30:41.821Z,95.80
2017-10-30T08:33:10.248Z,95.50
2017-10-30T08:35:37.785Z,95.50
2017-10-30T08:38:05.345Z,95.30
2017-10-30T08:40:32.969Z,95.20
2017-10-30T08:43:01.417Z,95.00
2017-10-30T08:45:28.945Z,94.90
2017-10-30T08:47:56.506Z,95.20
2017-10-30T08:50:24.046Z,95.30
2017-10-30T08:52:51.599Z,95.40
2017-10-30T08:55:19.987Z,95.60
2017-10-30T08:57:47.548Z,95.40
2017-10-30T09:00:15.098Z,95.50
2017-10-30T09:02:43.417Z,95.40
2017-10-30T09:05:11.897Z,95.40
2017-10-30T09:07:39.503Z,95.50
2017-10-30T09:10:07.030Z,95.40
2017-10-30T09:12:35.324Z,95.00
2017-10-30T09:15:03.698Z,94.90
2017-10-30T09:17:31.258Z,94.90
2017-10-30T09:19:58.773Z,94.60
2017-10-30T09:22:26.621Z,95.10
2017-10-30T09:24:54.156Z,94.70
2017-10-30T09:27:21.683Z,94.50
2017-10-30T09:29:49.775Z,94.30
2017-10-30T09:32:18.164Z,93.90
2017-10-30T09:34:46.448Z,93.50
2017-10-30T09:37:14.011Z,93.50
2017-10-30T09:39:41.559Z,92.80
2017-10-30T09:42:09.233Z,93.20
2017-10-30T09:44:36.800Z,93.40
2017-10-30T09:47:04.454Z,93.70
2017-10-30T09:49:32.032Z,93.40
2017-10-30T09:51:59.778Z,93.10
2017-10-30T09:54:28.097Z,92.70
2017-10-30T09:56:55.630Z,92.70
2017-10-30T09:59:23.396Z,92.40
2017-10-30T10:01:51.008Z,91.10
2017-10-30T10:04:18.542Z,91.50
2017-10-30T10:06:46.110Z,90.80
2017-10-30T10:09:14.662Z,90.60
2017-10-30T10:11:42.191Z,90.60
2017-10-30T10:14:09.766Z,91.00
2017-10-30T10:16:37.330Z,91.30
2017-10-30T10:19:04.830Z,91.30
2017-10-30T10:21:33.330Z,90.80
2017-10-30T10:24:00.877Z,90.80
2017-10-30T10:26:28.413Z,90.30
2017-10-30T10:28:55.989Z,89.00
2017-10-30T10:31:24.299Z,90.00
2017-10-30T10:33:51.841Z,90.00
2017-10-30T10:36:19.420Z,88.60
2017-10-30T10:38:46.965Z,87.90
2017-10-30T10:41:14.511Z,87.10
2017-10-30T10:43:42.067Z,85.30
2017-10-30T10:46:09.601Z,84.20
2017-10-30T10:48:37.914Z,85.00
2017-10-30T10:51:05.478Z,84.80
2017-10-30T10:53:33.012Z,84.50
2017-10-30T10:56:00.525Z,82.50
2017-10-30T10:58:28.168Z,82.50
2017-10-30T11:00:55.721Z,82.50
2017-10-30T11:03:23.375Z,82.90
2017-10-30T11:05:51.126Z,81.40
2017-10-30T11:08:18.676Z,81.50
2017-10-30T11:10:46.243Z,81.30
2017-10-30T11:13:13.821Z,81.30
2017-10-30T11:15:41.541Z,81.10
2017-10-30T11:18:09.132Z,80.40
2017-10-30T11:20:39.863Z,80.40
2017-10-30T11:23:08.232Z,83.10
2017-10-30T11:25:35.782Z,82.60
2017-10-30T11:28:03.531Z,78.30
2017-10-30T11:30:31.108Z,76.10
2017-10-30T11:32:58.660Z,77.00
2017-10-30T11:35:26.355Z,77.40
2017-10-30T11:37:53.865Z,76.40
2017-10-30T11:40:21.443Z,73.20
2017-10-30T11:42:49.720Z,73.30
2017-10-30T11:45:17.288Z,74.90
2017-10-30T11:47:44.843Z,74.80
2017-10-30T11:50:13.540Z,75.90
2017-10-30T11:52:41.105Z,75.80
2017-10-30T11:55:08.757Z,75.50
2017-10-30T11:57:36.400Z,75.80
2017-10-30T12:00:04.006Z,76.00
2017-10-30T12:02:31.550Z,75.30
2017-10-30T12:04:59.160Z,74.30
2017-10-30T12:07:26.708Z,75.00
2017-10-30T12:09:55.008Z,73.70
2017-10-30T12:12:22.581Z,73.70
2017-10-30T12:14:50.459Z,73.10
2017-10-30T12:17:18.029Z,73.90
2017-10-30T12:19:45.643Z,74.90
2017-10-30T12:22:13.180Z,74.10
2017-10-30T12:24:41.564Z,76.00
2017-10-30T12:27:09.151Z,75.80
2017-10-30T12:29:36.709Z,75.30
2017-10-30T12:32:04.292Z,73.90
2017-10-30T12:34:32.024Z,73.70
2017-10-30T12:36:59.570Z,73.90
2017-10-30T12:39:27.160Z,74.20
2017-10-30T12:41:54.729Z,74.90
2017-10-30T12:44:22.305Z,72.30
2017-10-30T12:46:49.957Z,70.80
2017-10-30T12:49:17.518Z,71.60
2017-10-30T12:51:45.069Z,71.20
2017-10-30T12:54:12.617Z,71.00
2017-10-30T12:56:40.145Z,70.50
2017-10-30T12:59:07.674Z,71.60
2017-10-30T13:01:36.002Z,74.20
2017-10-30T13:04:03.548Z,74.10
2017-10-30T13:06:31.085Z,74.10
2017-10-30T13:08:58.593Z,74.30
2017-10-30T13:11:27.694Z,75.50
2017-10-30T13:13:56.036Z,75.20
2017-10-30T13:16:23.593Z,75.10
2017-10-30T13:18:51.207Z,75.60
2017-10-30T13:21:19.515Z,75.00
2017-10-30T13:23:47.187Z,75.00
2017-10-30T13:26:14.904Z,75.10
2017-10-30T13:28:43.208Z,75.10
2017-10-30T13:31:10.779Z,75.10
2017-10-30T13:33:38.333Z,74.90
2017-10-30T13:36:05.892Z,74.70
2017-10-30T13:38:33.450Z,75.20
2017-10-30T13:41:01.046Z,73.90
2017-10-30T13:43:28.587Z,74.20
2017-10-30T13:45:56.182Z,73.20
2017-10-30T13:48:23.736Z,73.60
2017-10-30T13:50:51.316Z,72.30
2017-10-30T13:53:19.929Z,73.30
2017-10-30T13:55:47.681Z,73.30
2017-10-30T13:58:15.231Z,71.30
2017-10-30T14:00:42.907Z,72.40
2017-10-30T14:03:10.468Z,73.80
2017-10-30T14:05:38.001Z,75.70
2017-10-30T14:08:06.317Z,76.80
2017-10-30T14:10:33.961Z,76.80
2017-10-30T14:13:01.508Z,77.50
2017-10-30T14:15:29.082Z,76.80
2017-10-30T14:17:56.734Z,77.60
2017-10-30T14:20:24.266Z,78.00
2017-10-30T14:22:53.125Z,81.20
2017-10-30T14:25:20.730Z,81.20
2017-10-30T14:27:48.266Z,81.70
2017-10-30T14:30:16.621Z,83.20
2017-10-30T14:32:44.165Z,83.20
2017-10-30T14:35:11.699Z,83.40
2017-10-30T14:37:39.270Z,83.80
2017-10-30T14:40:06.815Z,84.60
2017-10-30T14:42:34.333Z,84.20
2017-10-30T14:45:03.253Z,84.10
2017-10-30T14:47:30.991Z,84.10
2017-10-30T14:49:59.288Z,81.90
2017-10-30T14:52:26.856Z,81.90
2017-10-30T14:54:54.611Z,79.70
2017-10-30T14:57:22.726Z,79.80
2017-10-30T14:59:50.256Z,79.10
2017-10-30T15:02:17.805Z,79.70
2017-10-30T15:04:45.470Z,79.00
2017-10-30T15:07:13.122Z,78.90
2017-10-30T15:09:40.681Z,78.70
2017-10-30T15:12:08.232Z,78.90
2017-10-30T15:14:35.746Z,79.30
2017-10-30T15:17:03.344Z,78.00
2017-10-30T15:19:30.888Z,77.80
2017-10-30T15:21:58.467Z,77.70
2017-10-30T15:24:26.142Z,78.20
2017-10-30T15:26:53.735Z,78.10
2017-10-30T15:29:21.279Z,78.70
2017-10-30T15:31:48.860Z,80.70
2017-10-30T15:34:16.411Z,81.60
2017-10-30T15:36:43.954Z,81.60
2017-10-30T15:39:11.505Z,82.50
2017-10-30T15:41:39.045Z,83.00
2017-10-30T15:44:06.741Z,84.30
2017-10-30T15:46:35.050Z,84.60
2017-10-30T15:49:03.340Z,84.80
2017-10-30T15:51:30.941Z,84.80
2017-10-30T15:53:58.502Z,85.00
2017-10-30T15:56:26.128Z,85.80
2017-10-30T15:58:53.671Z,86.00
2017-10-30T16:01:21.223Z,86.60
2017-10-30T16:03:48.999Z,87.10
2017-10-30T16:06:16.745Z,87.20
2017-10-30T16:08:44.310Z,88.00
2017-10-30T16:11:12.595Z,88.90
2017-10-30T16:13:40.159Z,88.90
2017-10-30T16:16:07.712Z,89.70
2017-10-30T16:18:35.381Z,90.40
2017-10-30T16:21:03.250Z,87.00
2017-10-30T16:23:30.806Z,87.90
2017-10-30T16:25:58.358Z,86.80
2017-10-30T16:28:25.955Z,86.70
2017-10-30T16:30:53.504Z,86.50
2017-10-30T16:33:21.861Z,85.70
2017-10-30T16:35:49.450Z,84.60
2017-10-30T16:38:17.502Z,86.00
2017-10-30T16:40:45.027Z,85.50
2017-10-30T16:43:12.795Z,87.40
2017-10-30T16:45:40.356Z,89.00
2017-10-30T16:48:07.888Z,88.80
2017-10-30T16:50:36.222Z,89.80
2017-10-30T16:53:03.788Z,89.80
2017-10-30T16:55:31.343Z,90.10
2017-10-30T16:57:58.903Z,89.80
2017-10-30T17:00:26.467Z,89.70
2017-10-30T17:02:54.001Z,90.40
2017-10-30T17:05:21.597Z,89.40
2017-10-30T17:07:49.988Z,90.00
2017-10-30T17:10:17.563Z,90.30
2017-10-30T17:12:45.153Z,90.30
2017-10-30T17:15:12.717Z,90.60
2017-10-30T17:17:40.261Z,91.10
2017-10-30T17:20:08.581Z,91.00
2017-10-30T17:22:37.009Z,90.70
2017-10-30T17:25:04.561Z,90.60
2017-10-30T17:27:32.123Z,90.80
2017-10-30T17:29:59.969Z,90.80
2017-10-30T17:32:28.289Z,91.40
2017-10-30T17:34:55.892Z,91.40
2017-10-30T17:37:24.214Z,91.60
2017-10-30T17:39:51.768Z,91.60
2017-10-30T17:42:19.317Z,91.90
2017-10-30T17:44:46.881Z,92.50
2017-10-30T17:47:14.449Z,92.70
2017-10-30T17:49:44.776Z,94.10
2017-10-30T17:52:15.609Z,94.60
2017-10-30T17:54:43.922Z,95.10
2017-10-30T17:57:12.574Z,95.80
2017-10-30T17:59:40.155Z,95.80
2017-10-30T18:02:08.042Z,96.10
2017-10-30T18:04:36.331Z,96.40
2017-10-30T18:07:03.935Z,96.30
2017-10-30T18:09:31.890Z,96.40
2017-10-30T18:11:59.480Z,96.50
2017-10-30T18:14:27.261Z,96.80
2017-10-30T18:16:55.888Z,96.80
2017-10-30T18:19:23.591Z,96.70
2017-10-30T18:21:57.090Z,96.80
2017-10-30T18:24:24.631Z,96.90
2017-10-30T18:26:52.210Z,97.10
2017-10-30T18:29:19.826Z,97.20
2017-10-30T18:31:48.438Z,97.20
2017-10-30T18:34:16.265Z,97.20
2017-10-30T18:36:44.022Z,97.30
2017-10-30T18:39:11.612Z,97.30
2017-10-30T18:41:39.190Z,97.40
2017-10-30T18:44:07.556Z,97.50
2017-10-30T18:46:35.143Z,97.50
2017-10-30T18:49:02.853Z,97.50
2017-10-30T18:51:30.569Z,97.50
2017-10-30T18:53:58.154Z,97.60
2017-10-30T18:56:25.703Z,97.70
2017-10-30T18:58:53.427Z,97.80
2017-10-30T19:01:21.069Z,97.90
2017-10-30T19:03:49.378Z,97.90
2017-10-30T19:06:16.963Z,98.00
2017-10-30T19:08:44.534Z,98.10
2017-10-30T19:11:12.155Z,98.10
2017-10-30T19:13:40.577Z,98.10
2017-10-30T19:16:08.420Z,98.10
2017-10-30T19:18:35.957Z,98.40
2017-10-30T19:21:06.250Z,98.00
2017-10-30T19:23:35.143Z,97.90
2017-10-30T19:26:02.899Z,98.10
2017-10-30T19:28:31.334Z,98.00
2017-10-30T19:30:59.036Z,98.00
2017-10-30T19:33:28.005Z,98.20
2017-10-30T19:35:55.803Z,98.20
2017-10-30T19:38:23.590Z,98.30
2017-10-30T19:40:51.285Z,98.30
2017-10-30T19:43:18.879Z,98.40
2017-10-30T19:45:46.969Z,98.50
2017-10-30T19:48:14.506Z,98.60
2017-10-30T19:50:42.141Z,98.60
2017-10-30T19:53:09.714Z,98.50
2017-10-30T19:55:37.343Z,98.60
2017-10-30T19:58:05.016Z,98.50
2017-10-30T20:00:32.681Z,98.50
2017-10-30T20:03:00.239Z,98.60
2017-10-30T20:05:33.458Z,98.70
2017-10-30T20:08:01.006Z,98.70
2017-10-30T20:10:35.180Z,98.70
2017-10-30T20:13:02.785Z,98.70
2017-10-30T20:15:30.395Z,98.70
2017-10-30T20:17:58.995Z,98.80
2017-10-30T20:20:26.543Z,98.70
2017-10-30T20:22:54.345Z,98.80
2017-10-30T20:25:21.997Z,98.70
2017-10-30T20:27:49.687Z,98.70
2017-10-30T20:30:17.733Z,98.70
2017-10-30T20:32:45.608Z,98.60
2017-10-30T20:35:13.212Z,98.50
2017-10-30T20:37:41.545Z,98.50
2017-10-30T20:40:09.174Z,98.50
2017-10-30T20:42:38.063Z,98.50
2017-10-30T20:45:06.313Z,98.50
2017-10-30T20:47:34.775Z,98.60
2017-10-30T20:50:02.611Z,98.60
2017-10-30T20:52:31.084Z,98.70
2017-10-30T20:54:58.924Z,98.60
2017-10-30T20:57:31.094Z,98.70
2017-10-30T20:59:59.518Z,98.90
2017-10-30T21:02:27.078Z,98.80
2017-10-30T21:04:55.714Z,98.80
2017-10-30T21:07:24.734Z,98.80
2017-10-30T21:09:52.343Z,98.90
2017-10-30T21:12:20.994Z,99.00
2017-10-30T21:14:48.674Z,99.00
2017-10-30T21:17:18.124Z,99.10
2017-10-30T21:19:45.650Z,99.10
2017-10-30T21:22:14.539Z,99.20
2017-10-30T21:24:42.929Z,99.20
2017-10-30T21:27:10.498Z,99.20
2017-10-30T21:29:38.285Z,99.10
2017-10-30T21:32:05.922Z,99.10
2017-10-30T21:34:34.613Z,99.10
2017-10-30T21:37:02.465Z,99.40
2017-10-30T21:39:30.294Z,99.10
2017-10-30T21:41:57.987Z,99.30
2017-10-30T21:44:25.547Z,99.40
2017-10-30T21:46:53.123Z,99.30
2017-10-30T21:49:20.951Z,99.40
2017-10-30T21:51:49.342Z,99.20
2017-10-30T21:54:18.067Z,99.20
2017-10-30T21:56:45.636Z,99.10
2017-10-30T21:59:13.181Z,99.10
2017-10-30T22:01:41.065Z,99.10
2017-10-30T22:04:08.616Z,99.10
2017-10-30T22:06:36.288Z,99.10
2017-10-30T22:09:04.110Z,99.20
2017-10-30T22:11:31.764Z,99.40
2017-10-30T22:13:59.513Z,99.10
2017-10-30T22:16:27.153Z,99.10
2017-10-30T22:18:54.845Z,99.10
2017-10-30T22:21:22.466Z,99.00
2017-10-30T22:23:50.844Z,99.10
2017-10-30T22:26:19.257Z,98.80
2017-10-30T22:28:47.029Z,98.80
2017-10-30T22:31:14.694Z,98.70
2017-10-30T22:33:42.279Z,98.50
2017-10-30T22:36:10.013Z,98.40
2017-10-30T22:38:38.995Z,98.20
2017-10-30T22:41:06.608Z,98.20
2017-10-30T22:43:34.320Z,98.10
2017-10-30T22:46:02.050Z,97.90
2017-10-30T22:48:30.673Z,97.90
2017-10-30T22:50:58.649Z,97.90
2017-10-30T22:53:26.233Z,98.00
2017-10-30T22:55:54.207Z,97.90
2017-10-30T22:58:21.954Z,97.80
2017-10-30T23:00:50.309Z,97.80
2017-10-30T23:03:20.009Z,97.70
2017-10-30T23:05:48.521Z,97.70
2017-10-30T23:08:16.413Z,97.60
2017-10-30T23:10:43.949Z,97.90
2017-10-30T23:13:11.564Z,97.80
2017-10-30T23:15:39.473Z,97.70
2017-10-30T23:18:07.008Z,97.60
2017-10-30T23:20:34.572Z,97.50
2017-10-30T23:23:05.389Z,97.70
2017-10-30T23:25:33.084Z,98.10
2017-10-30T23:28:01.520Z,97.20
2017-10-30T23:30:31.236Z,97.10
2017-10-30T23:32:58.772Z,97.40
2017-10-30T23:35:26.438Z,97.50
2017-10-30T23:37:54.264Z,97.50
2017-10-30T23:40:21.793Z,97.40
2017-10-30T23:42:49.338Z,97.50
2017-10-30T23:45:16.898Z,97.40
2017-10-30T23:47:44.454Z,97.40
2017-10-30T23:50:12.104Z,97.50
2017-10-30T23:52:39.630Z,97.40
2017-10-30T23:55:07.952Z,97.50
2017-10-30T23:57:35.515Z,97.50
